createdAt,value
2022-10-22T00:01:09.426Z,88.52
2022-10-22T00:03:36.181Z,88.44
2022-10-22T00:06:03.904Z,88.57
2022-10-22T00:08:31.414Z,88.25
2022-10-22T00:10:58.281Z,88.08
2022-10-22T00:13:25.396Z,88.15
2022-10-22T00:15:52.059Z,88.39
2022-10-22T00:18:20.240Z,88.17
2022-10-22T00:20:47.035Z,88.28
2022-10-22T00:23:14.500Z,88.19
2022-10-22T00:25:43.642Z,88.34
2022-10-22T00:28:11.582Z,88.12
2022-10-22T00:30:38.302Z,87.87
2022-10-22T00:33:04.924Z,87.96
2022-10-22T00:35:32.349Z,87.95
2022-10-22T00:38:00.089Z,88.19
2022-10-22T00:40:27.205Z,87.69
2022-10-22T00:42:54.604Z,87.69
2022-10-22T00:45:25.370Z,87.86
2022-10-22T00:48:21.553Z,87.90
2022-10-22T00:50:58.629Z,87.73
2022-10-22T00:53:31.495Z,87.56
2022-10-22T00:55:59.279Z,87.77
2022-10-22T00:58:29.495Z,87.57
2022-10-22T01:00:57.108Z,87.75
2022-10-22T01:03:24.622Z,87.82
2022-10-22T01:05:59.981Z,87.74
2022-10-22T01:08:41.472Z,87.86
2022-10-22T01:11:35.852Z,87.87
2022-10-22T01:14:41.216Z,87.29
2022-10-22T01:17:23.661Z,87.55
2022-10-22T01:20:23.641Z,87.40
2022-10-22T01:23:00.405Z,87.60
2022-10-22T01:25:46.138Z,87.58
2022-10-22T01:28:51.787Z,87.87
2022-10-22T01:31:22.077Z,87.54
2022-10-22T01:33:51.160Z,87.26
2022-10-22T01:36:19.209Z,87.50
2022-10-22T01:38:47.633Z,87.36
2022-10-22T01:41:14.581Z,87.63
2022-10-22T01:43:42.197Z,87.62
2022-10-22T01:46:11.660Z,87.43
2022-10-22T01:49:16.726Z,87.63
2022-10-22T01:52:03.693Z,87.15
2022-10-22T01:54:42.653Z,87.66
2022-10-22T01:57:17.844Z,87.62
2022-10-22T01:59:54.657Z,87.82
2022-10-22T02:02:40.938Z,87.96
2022-10-22T02:05:36.206Z,87.80
2022-10-22T02:08:09.154Z,87.66
2022-10-22T02:10:39.585Z,87.47
2022-10-22T02:13:12.696Z,87.98
2022-10-22T02:15:42.027Z,87.79
2022-10-22T02:18:10.139Z,87.64
2022-10-22T02:20:41.945Z,87.88
2022-10-22T02:23:10.521Z,87.61
2022-10-22T02:25:45.025Z,87.68
2022-10-22T02:28:24.699Z,87.96
2022-10-22T02:30:56.656Z,88.05
2022-10-22T02:33:28.751Z,87.73
2022-10-22T02:35:56.299Z,88.04
2022-10-22T02:38:25.161Z,88.05
2022-10-22T02:40:51.993Z,87.67
2022-10-22T02:43:19.767Z,88.15
2022-10-22T02:45:47.305Z,88.33
2022-10-22T02:48:14.381Z,88.70
2022-10-22T02:50:42.001Z,88.84
2022-10-22T02:53:08.639Z,88.95
2022-10-22T02:55:35.469Z,89.08
2022-10-22T02:58:03.465Z,88.77
2022-10-22T03:00:30.285Z,88.99
2022-10-22T03:02:56.910Z,89.21
2022-10-22T03:05:23.661Z,89.80
2022-10-22T03:07:50.332Z,89.70
2022-10-22T03:10:17.280Z,89.71
2022-10-22T03:12:44.037Z,89.74
2022-10-22T03:15:10.745Z,90.00
2022-10-22T03:17:37.562Z,90.25
2022-10-22T03:20:05.661Z,90.39
2022-10-22T03:22:33.985Z,90.44
2022-10-22T03:25:07.821Z,91.04
2022-10-22T03:27:37.657Z,90.91
2022-10-22T03:30:05.354Z,90.79
2022-10-22T03:32:32.128Z,91.08
2022-10-22T03:37:31.727Z,90.75
2022-10-22T03:39:58.616Z,91.54
2022-10-22T03:42:25.376Z,91.67
2022-10-22T03:44:52.805Z,91.77
2022-10-22T03:47:21.143Z,91.83
2022-10-22T03:49:47.778Z,91.78
2022-10-22T03:52:15.193Z,92.17
2022-10-22T03:54:42.827Z,91.56
2022-10-22T03:57:11.282Z,92.22
2022-10-22T03:59:40.912Z,91.99
2022-10-22T04:02:08.699Z,92.18
2022-10-22T04:04:36.050Z,92.08
2022-10-22T04:07:02.892Z,91.88
2022-10-22T04:09:34.222Z,91.86
2022-10-22T04:12:01.337Z,91.77
2022-10-22T04:14:28.043Z,91.41
2022-10-22T04:16:55.653Z,91.90
2022-10-22T04:19:22.317Z,91.94
2022-10-22T04:21:49.307Z,91.81
2022-10-22T04:24:16.734Z,92.16
2022-10-22T04:26:43.696Z,92.29
2022-10-22T04:29:15.932Z,92.23
2022-10-22T04:31:43.549Z,92.37
2022-10-22T04:34:10.165Z,92.44
2022-10-22T04:36:36.830Z,92.63
2022-10-22T04:39:04.734Z,92.38
2022-10-22T04:41:37.087Z,92.67
2022-10-22T04:44:04.932Z,92.50
2022-10-22T04:46:34.583Z,92.48
2022-10-22T04:49:03.794Z,92.52
2022-10-22T04:51:31.819Z,92.56
2022-10-22T04:53:58.562Z,92.49
2022-10-22T04:56:27.877Z,93.05
2022-10-22T04:58:57.356Z,93.06
2022-10-22T05:01:32.335Z,93.29
2022-10-22T05:04:01.239Z,93.25
2022-10-22T05:06:29.800Z,93.08
2022-10-22T05:08:58.978Z,93.41
2022-10-22T05:11:29.096Z,93.05
2022-10-22T05:13:57.392Z,93.20
2022-10-22T05:16:24.838Z,93.39
2022-10-22T05:18:54.132Z,93.10
2022-10-22T05:21:21.933Z,92.73
2022-10-22T05:23:50.279Z,92.85
2022-10-22T05:26:21.807Z,92.69
2022-10-22T05:28:49.638Z,93.21
2022-10-22T05:31:17.092Z,93.33
2022-10-22T05:33:44.319Z,93.32
2022-10-22T05:36:16.155Z,93.22
2022-10-22T05:38:43.446Z,92.80
2022-10-22T05:41:13.068Z,92.71
2022-10-22T05:43:40.344Z,93.57
2022-10-22T05:46:22.969Z,93.96
2022-10-22T05:48:58.270Z,93.42
2022-10-22T05:51:26.689Z,93.33
2022-10-22T05:53:58.815Z,93.53
2022-10-22T05:56:27.070Z,93.49
2022-10-22T05:58:53.768Z,93.65
2022-10-22T06:01:27.435Z,93.48
2022-10-22T06:03:55.948Z,93.26
2022-10-22T06:06:39.602Z,93.69
2022-10-22T06:09:06.384Z,93.40
2022-10-22T06:11:35.185Z,93.58
2022-10-22T06:14:02.915Z,93.14
2022-10-22T06:16:30.423Z,93.20
2022-10-22T06:19:01.049Z,92.85
2022-10-22T06:21:29.208Z,92.88
2022-10-22T06:23:58.835Z,92.30
2022-10-22T06:26:25.828Z,92.14
2022-10-22T06:28:52.939Z,92.07
2022-10-22T06:31:20.511Z,92.00
2022-10-22T06:33:47.086Z,91.66
2022-10-22T06:36:18.141Z,91.39
2022-10-22T06:38:45.169Z,91.21
2022-10-22T06:41:15.357Z,90.88
2022-10-22T06:43:47.772Z,90.02
2022-10-22T06:46:19.856Z,89.34
2022-10-22T06:48:52.456Z,89.07
2022-10-22T06:51:21.144Z,89.00
2022-10-22T06:53:48.074Z,88.42
2022-10-22T06:56:17.719Z,88.18
2022-10-22T06:58:48.298Z,88.24
2022-10-22T07:01:16.925Z,87.92
2022-10-22T07:03:44.401Z,87.71
2022-10-22T07:06:13.959Z,87.21
2022-10-22T07:08:42.179Z,87.71
2022-10-22T07:11:12.050Z,87.29
2022-10-22T07:13:38.626Z,86.22
2022-10-22T07:16:07.137Z,84.43
2022-10-22T07:18:35.708Z,81.92
2022-10-22T07:21:02.413Z,80.33
2022-10-22T07:23:29.804Z,78.63
2022-10-22T07:28:29.759Z,68.21
2022-10-22T07:30:56.394Z,64.76
2022-10-22T07:33:23.186Z,62.53
2022-10-22T07:35:49.811Z,60.38
2022-10-22T07:38:16.462Z,58.84
2022-10-22T07:40:43.068Z,56.78
2022-10-22T07:43:11.173Z,54.81
2022-10-22T07:45:37.778Z,52.70
2022-10-22T07:48:04.848Z,51.35
2022-10-22T07:50:31.587Z,50.50
2022-10-22T07:52:58.543Z,50.33
2022-10-22T07:55:25.697Z,49.91
2022-10-22T07:57:52.759Z,52.09
2022-10-22T08:00:23.041Z,54.35
2022-10-22T08:02:52.045Z,54.18
2022-10-22T08:05:19.190Z,55.59
2022-10-22T08:07:45.937Z,57.67
2022-10-22T08:10:13.933Z,59.98
2022-10-22T08:12:42.454Z,61.07
2022-10-22T08:15:09.923Z,62.02
2022-10-22T08:17:38.942Z,62.54
2022-10-22T08:20:06.187Z,63.24
2022-10-22T08:22:32.964Z,63.47
2022-10-22T08:25:00.535Z,64.33
2022-10-22T08:27:27.286Z,65.01
2022-10-22T08:29:54.012Z,65.98
2022-10-22T08:32:20.875Z,66.23
2022-10-22T08:34:47.703Z,66.59
2022-10-22T08:37:14.688Z,66.75
2022-10-22T08:39:42.758Z,67.08
2022-10-22T08:42:37.257Z,67.67
2022-10-22T08:45:13.541Z,66.77
2022-10-22T08:47:55.489Z,65.43
2022-10-22T08:50:45.570Z,64.92
2022-10-22T08:53:27.911Z,64.32
2022-10-22T08:55:54.719Z,64.43
2022-10-22T08:58:41.978Z,63.23
2022-10-22T09:01:20.931Z,63.69
2022-10-22T09:03:57.240Z,63.57
2022-10-22T14:45:56.102Z,52.41
2022-10-22T14:48:24.225Z,52.62
2022-10-22T14:50:51.211Z,52.28
2022-10-22T14:53:18.169Z,52.45
2022-10-22T14:55:47.302Z,52.48
2022-10-22T14:58:14.858Z,52.56
2022-10-22T15:00:42.885Z,53.42
2022-10-22T15:03:10.173Z,53.85
2022-10-22T15:05:43.390Z,53.55
2022-10-22T15:08:14.878Z,53.63
2022-10-22T15:10:41.920Z,53.78
2022-10-22T15:13:09.172Z,53.27
2022-10-22T15:15:39.443Z,53.26
2022-10-22T15:18:07.171Z,53.49
2022-10-22T15:20:33.937Z,54.09
2022-10-22T15:23:00.724Z,54.43
2022-10-22T15:25:27.688Z,54.33
2022-10-22T15:27:58.469Z,54.84
2022-10-22T15:30:31.525Z,55.72
2022-10-22T15:32:58.210Z,55.70
2022-10-22T15:35:28.556Z,55.96
2022-10-22T15:37:55.206Z,55.95
2022-10-22T15:40:21.898Z,56.00
2022-10-22T15:42:48.566Z,56.34
2022-10-22T15:45:15.804Z,57.04
2022-10-22T15:47:47.616Z,57.11
2022-10-22T15:50:15.116Z,56.84
2022-10-22T15:52:42.279Z,57.69
2022-10-22T15:55:10.641Z,57.85
2022-10-22T15:57:38.439Z,58.17
2022-10-22T16:00:06.338Z,57.68
2022-10-22T16:02:39.064Z,58.32
2022-10-22T16:05:06.896Z,58.63
2022-10-22T16:07:33.473Z,59.02
2022-10-22T16:10:01.554Z,59.64
2022-10-22T16:12:28.229Z,59.35
2022-10-22T16:14:54.873Z,59.05
2022-10-22T16:17:21.563Z,59.63
2022-10-22T16:19:48.588Z,60.80
2022-10-22T16:22:15.799Z,61.30
2022-10-22T16:24:43.129Z,62.22
2022-10-22T16:27:10.826Z,62.57
2022-10-22T16:29:39.297Z,63.47
2022-10-22T16:32:06.292Z,63.63
2022-10-22T16:34:32.971Z,64.26
2022-10-22T16:36:59.589Z,64.41
2022-10-22T16:39:26.237Z,64.58
2022-10-22T16:41:52.823Z,64.75
2022-10-22T16:44:19.646Z,64.99
2022-10-22T16:46:46.560Z,64.94
2022-10-22T16:49:13.254Z,64.86
2022-10-22T16:51:39.888Z,64.89
2022-10-22T16:54:09.715Z,64.70
2022-10-22T16:56:38.931Z,64.78
2022-10-22T16:59:06.764Z,64.84
2022-10-22T17:01:37.939Z,64.79
2022-10-22T17:04:07.213Z,64.82
2022-10-22T17:06:33.930Z,64.93
2022-10-22T17:09:00.733Z,64.72
2022-10-22T17:11:30.070Z,65.25
2022-10-22T17:13:57.153Z,65.33
2022-10-22T17:16:24.924Z,65.46
2022-10-22T17:18:53.897Z,65.75
2022-10-22T17:21:21.339Z,65.86
2022-10-22T17:23:48.414Z,66.13
2022-10-22T17:26:20.827Z,66.39
2022-10-22T17:28:48.705Z,66.75
2022-10-22T17:31:15.472Z,67.55
2022-10-22T17:33:42.296Z,67.92
2022-10-22T17:36:10.953Z,68.56
2022-10-22T17:38:38.933Z,68.69
2022-10-22T17:41:07.503Z,68.89
2022-10-22T17:43:37.848Z,68.87
2022-10-22T17:46:13.319Z,69.36
2022-10-22T17:48:40.321Z,69.44
2022-10-22T17:51:08.631Z,69.87
2022-10-22T17:53:35.771Z,69.72
2022-10-22T17:56:09.593Z,69.88
2022-10-22T17:58:36.608Z,70.15
2022-10-22T18:01:03.804Z,70.44
2022-10-22T18:03:30.742Z,70.21
2022-10-22T18:06:06.027Z,69.97
2022-10-22T18:08:33.131Z,69.86
2022-10-22T18:11:00.222Z,69.92
2022-10-22T18:13:26.882Z,70.29
2022-10-22T18:15:55.120Z,70.22
2022-10-22T18:18:22.990Z,70.49
2022-10-22T18:20:50.741Z,70.77
2022-10-22T18:23:20.717Z,71.23
2022-10-22T18:25:48.679Z,71.92
2022-10-22T18:28:17.784Z,71.83
2022-10-22T18:30:46.128Z,72.36
2022-10-22T18:33:15.281Z,72.64
2022-10-22T18:35:42.167Z,72.73
2022-10-22T18:38:10.125Z,73.54
2022-10-22T18:40:44.696Z,74.13
2022-10-22T18:43:11.825Z,73.99
2022-10-22T18:45:43.367Z,74.31
2022-10-22T18:48:10.620Z,74.63
2022-10-22T18:50:37.435Z,75.33
2022-10-22T18:53:04.367Z,75.44
2022-10-22T18:55:31.485Z,75.47
2022-10-22T18:57:58.299Z,75.95
2022-10-22T19:00:26.701Z,75.83
2022-10-22T19:02:54.880Z,76.42
2022-10-22T19:05:22.054Z,76.35
2022-10-22T19:07:51.983Z,76.61
2022-10-22T19:10:18.863Z,77.28
2022-10-22T19:12:45.668Z,77.13
2022-10-22T19:15:12.611Z,77.12
2022-10-22T19:17:39.429Z,77.71
2022-10-22T19:20:07.279Z,77.94
2022-10-22T19:22:34.159Z,78.22
2022-10-22T19:25:01.373Z,78.16
2022-10-22T19:27:29.311Z,78.54
2022-10-22T19:29:56.334Z,79.13
2022-10-22T19:32:24.436Z,79.00
2022-10-22T19:34:53.554Z,79.40
2022-10-22T19:37:20.860Z,79.43
2022-10-22T19:39:49.797Z,79.68
2022-10-22T19:42:16.547Z,79.88
2022-10-22T19:44:43.283Z,80.30
2022-10-22T19:47:11.337Z,80.30
2022-10-22T19:49:38.021Z,80.25
2022-10-22T19:52:04.809Z,80.50
2022-10-22T19:54:31.432Z,80.58
2022-10-22T19:56:58.098Z,80.80
2022-10-22T19:59:28.659Z,80.70
2022-10-22T20:01:57.966Z,80.89
2022-10-22T20:04:26.763Z,81.31
2022-10-22T20:06:58.776Z,81.09
2022-10-22T20:09:25.511Z,81.74
2022-10-22T20:11:52.125Z,81.40
2022-10-22T20:14:18.732Z,81.67
2022-10-22T20:16:45.694Z,81.45
2022-10-22T20:19:16.196Z,81.21
2022-10-22T20:21:43.875Z,81.66
2022-10-22T20:24:11.081Z,81.29
2022-10-22T20:26:37.879Z,81.28
2022-10-22T20:29:04.479Z,80.85
2022-10-22T20:31:32.963Z,81.54
2022-10-22T20:34:01.207Z,81.10
2022-10-22T20:36:29.939Z,81.30
2022-10-22T20:39:06.336Z,81.62
2022-10-22T20:41:34.775Z,81.72
2022-10-22T20:44:01.868Z,81.70
2022-10-22T20:46:31.282Z,81.55
2022-10-22T20:49:04.434Z,81.57
2022-10-22T20:51:31.683Z,81.83
2022-10-22T20:53:58.309Z,81.63
2022-10-22T20:56:25.190Z,81.77
2022-10-22T20:58:57.253Z,82.02
2022-10-22T21:01:24.312Z,82.05
2022-10-22T21:03:52.530Z,81.80
2022-10-22T21:06:23.561Z,82.03
2022-10-22T21:08:51.558Z,82.35
2022-10-22T21:11:18.941Z,82.44
2022-10-22T21:13:45.711Z,82.40
2022-10-22T21:16:14.556Z,82.18
2022-10-22T21:18:41.199Z,82.34
2022-10-22T21:21:09.025Z,82.63
2022-10-22T21:23:36.543Z,82.41
2022-10-22T21:26:04.205Z,82.39
2022-10-22T21:28:35.412Z,82.48
2022-10-22T21:31:08.235Z,82.20
2022-10-22T21:33:39.511Z,82.45
2022-10-22T21:36:08.937Z,82.42
2022-10-22T21:38:37.102Z,82.61
2022-10-22T21:41:08.231Z,82.74
2022-10-22T21:43:37.673Z,83.13
2022-10-22T21:46:08.189Z,83.01
2022-10-22T21:48:36.599Z,83.35
2022-10-22T21:51:08.901Z,83.20
2022-10-22T21:53:36.724Z,83.13
2022-10-22T21:56:04.551Z,82.89
2022-10-22T21:58:31.344Z,82.69
2022-10-22T22:00:58.542Z,82.84
2022-10-22T22:03:25.191Z,82.72
2022-10-22T22:05:57.869Z,82.76
2022-10-22T22:08:24.948Z,82.69
2022-10-22T22:10:52.184Z,82.52
2022-10-22T22:13:19.824Z,82.73
2022-10-22T22:15:46.441Z,82.49
2022-10-22T22:18:13.061Z,82.81
2022-10-22T22:20:39.742Z,82.38
2022-10-22T22:23:06.615Z,82.67
2022-10-22T22:25:33.261Z,82.79
2022-10-22T22:28:00.044Z,82.93
2022-10-22T22:30:28.219Z,83.30
2022-10-22T22:32:54.924Z,83.24
2022-10-22T22:35:22.017Z,83.20
2022-10-22T22:37:48.675Z,83.33
2022-10-22T22:40:15.240Z,82.86
2022-10-22T22:42:41.846Z,83.58
2022-10-22T22:45:08.716Z,83.42
2022-10-22T22:47:35.410Z,83.27
2022-10-22T22:50:02.022Z,83.31
2022-10-22T22:52:28.659Z,83.76
2022-10-22T22:54:55.282Z,83.37
2022-10-22T22:57:21.943Z,83.12
2022-10-22T22:59:52.004Z,83.06
2022-10-22T23:02:18.737Z,82.99
2022-10-22T23:04:45.324Z,83.29
2022-10-22T23:07:12.011Z,83.19
2022-10-22T23:09:38.666Z,82.95
2022-10-22T23:12:05.626Z,82.79
2022-10-22T23:14:32.433Z,83.31
2022-10-22T23:16:59.073Z,83.13
2022-10-22T23:19:25.676Z,83.36
2022-10-22T23:21:54.626Z,83.35
2022-10-22T23:24:27.655Z,83.62
2022-10-22T23:26:56.007Z,83.47
2022-10-22T23:29:27.995Z,83.73
2022-10-22T23:31:55.348Z,84.07
2022-10-22T23:34:24.850Z,83.88
2022-10-22T23:36:52.485Z,83.80
2022-10-22T23:39:22.115Z,84.49
2022-10-22T23:41:49.083Z,83.95
2022-10-22T23:44:16.033Z,84.10
2022-10-22T23:46:43.026Z,84.11
2022-10-22T23:49:10.531Z,84.52
2022-10-22T23:51:38.382Z,83.71
2022-10-22T23:54:08.104Z,84.14
2022-10-22T23:56:35.530Z,84.34
2022-10-22T23:59:02.929Z,84.14
